sensor_id;sensor_type;location;lat;lon;timestamp;P1;durP1;ratioP1;P2;durP2;ratioP2
35150;SDS011;55720;51.972;4.624;2022-08-19T00:00:41;18.88;;;11.30;;
35150;SDS011;55720;51.972;4.624;2022-08-19T00:03:06;23.27;;;12.30;;
35150;SDS011;55720;51.972;4.624;2022-08-19T00:05:32;23.02;;;12.65;;
35150;SDS011;55720;51.972;4.624;2022-08-19T00:07:58;20.23;;;12.18;;
35150;SDS011;55720;51.972;4.624;2022-08-19T00:10:23;14.05;;;11.00;;
35150;SDS011;55720;51.972;4.624;2022-08-19T00:12:49;16.98;;;11.05;;
35150;SDS011;55720;51.972;4.624;2022-08-19T00:15:15;16.65;;;10.63;;
35150;SDS011;55720;51.972;4.624;2022-08-19T00:17:43;17.75;;;11.73;;
35150;SDS011;55720;51.972;4.624;2022-08-19T00:20:11;19.08;;;11.27;;
35150;SDS011;55720;51.972;4.624;2022-08-19T00:22:38;19.50;;;11.85;;
35150;SDS011;55720;51.972;4.624;2022-08-19T00:25:06;16.65;;;11.73;;
35150;SDS011;55720;51.972;4.624;2022-08-19T00:27:32;20.73;;;12.27;;
35150;SDS011;55720;51.972;4.624;2022-08-19T00:29:57;19.85;;;12.10;;
35150;SDS011;55720;51.972;4.624;2022-08-19T00:32:23;16.73;;;11.70;;
35150;SDS011;55720;51.972;4.624;2022-08-19T00:34:50;16.65;;;11.90;;
35150;SDS011;55720;51.972;4.624;2022-08-19T00:37:17;20.50;;;11.68;;
35150;SDS011;55720;51.972;4.624;2022-08-19T00:39:44;25.90;;;13.15;;
35150;SDS011;55720;51.972;4.624;2022-08-19T00:42:09;17.58;;;12.25;;
35150;SDS011;55720;51.972;4.624;2022-08-19T00:44:34;17.80;;;12.15;;
35150;SDS011;55720;51.972;4.624;2022-08-19T00:47:00;20.25;;;12.68;;
35150;SDS011;55720;51.972;4.624;2022-08-19T00:49:28;23.30;;;12.68;;
35150;SDS011;55720;51.972;4.624;2022-08-19T00:52:17;26.25;;;12.50;;
35150;SDS011;55720;51.972;4.624;2022-08-19T00:54:47;21.55;;;11.98;;
35150;SDS011;55720;51.972;4.624;2022-08-19T00:57:15;23.70;;;13.00;;
35150;SDS011;55720;51.972;4.624;2022-08-19T00:59:44;24.98;;;13.10;;
35150;SDS011;55720;51.972;4.624;2022-08-19T01:02:12;20.08;;;13.27;;
35150;SDS011;55720;51.972;4.624;2022-08-19T01:04:39;23.38;;;13.27;;
35150;SDS011;55720;51.972;4.624;2022-08-19T01:07:05;24.88;;;12.95;;
35150;SDS011;55720;51.972;4.624;2022-08-19T01:09:30;26.45;;;13.25;;
35150;SDS011;55720;51.972;4.624;2022-08-19T01:11:56;20.52;;;13.75;;
35150;SDS011;55720;51.972;4.624;2022-08-19T01:14:22;23.95;;;13.50;;
35150;SDS011;55720;51.972;4.624;2022-08-19T01:16:49;19.17;;;12.30;;
35150;SDS011;55720;51.972;4.624;2022-08-19T01:22:12;21.33;;;12.45;;
35150;SDS011;55720;51.972;4.624;2022-08-19T01:24:35;22.98;;;12.55;;
35150;SDS011;55720;51.972;4.624;2022-08-19T01:27:03;32.47;;;14.00;;
35150;SDS011;55720;51.972;4.624;2022-08-19T01:29:29;23.63;;;12.65;;
35150;SDS011;55720;51.972;4.624;2022-08-19T01:31:55;15.60;;;12.15;;
35150;SDS011;55720;51.972;4.624;2022-08-19T01:34:20;26.08;;;12.60;;
35150;SDS011;55720;51.972;4.624;2022-08-19T01:36:46;19.90;;;12.77;;
35150;SDS011;55720;51.972;4.624;2022-08-19T01:39:22;21.40;;;12.88;;
35150;SDS011;55720;51.972;4.624;2022-08-19T01:41:49;20.27;;;11.70;;
35150;SDS011;55720;51.972;4.624;2022-08-19T01:44:20;29.35;;;12.35;;
35150;SDS011;55720;51.972;4.624;2022-08-19T01:46:48;19.05;;;12.23;;
35150;SDS011;55720;51.972;4.624;2022-08-19T01:49:15;18.73;;;11.38;;
35150;SDS011;55720;51.972;4.624;2022-08-19T01:51:42;20.00;;;12.82;;
35150;SDS011;55720;51.972;4.624;2022-08-19T01:54:08;16.55;;;11.52;;
35150;SDS011;55720;51.972;4.624;2022-08-19T01:56:37;19.38;;;11.43;;
35150;SDS011;55720;51.972;4.624;2022-08-19T01:59:04;17.38;;;11.40;;
35150;SDS011;55720;51.972;4.624;2022-08-19T02:01:35;16.45;;;11.68;;
35150;SDS011;55720;51.972;4.624;2022-08-19T02:04:00;19.10;;;12.52;;
35150;SDS011;55720;51.972;4.624;2022-08-19T02:06:26;23.20;;;13.32;;
35150;SDS011;55720;51.972;4.624;2022-08-19T02:08:52;24.63;;;12.13;;
35150;SDS011;55720;51.972;4.624;2022-08-19T02:11:21;21.67;;;12.65;;
35150;SDS011;55720;51.972;4.624;2022-08-19T02:13:51;23.20;;;12.65;;
35150;SDS011;55720;51.972;4.624;2022-08-19T02:16:18;25.88;;;12.75;;
35150;SDS011;55720;51.972;4.624;2022-08-19T02:18:44;24.25;;;12.65;;
35150;SDS011;55720;51.972;4.624;2022-08-19T02:21:10;25.90;;;14.13;;
35150;SDS011;55720;51.972;4.624;2022-08-19T02:23:35;28.58;;;14.10;;
35150;SDS011;55720;51.972;4.624;2022-08-19T02:26:01;34.28;;;16.25;;
35150;SDS011;55720;51.972;4.624;2022-08-19T02:28:26;28.63;;;14.90;;
35150;SDS011;55720;51.972;4.624;2022-08-19T02:30:52;27.83;;;16.17;;
35150;SDS011;55720;51.972;4.624;2022-08-19T02:33:17;33.70;;;16.60;;
35150;SDS011;55720;51.972;4.624;2022-08-19T02:35:46;36.08;;;16.85;;
35150;SDS011;55720;51.972;4.624;2022-08-19T02:38:12;30.38;;;16.38;;
35150;SDS011;55720;51.972;4.624;2022-08-19T02:40:58;36.88;;;16.58;;
35150;SDS011;55720;51.972;4.624;2022-08-19T02:43:29;29.42;;;16.60;;
35150;SDS011;55720;51.972;4.624;2022-08-19T02:45:56;39.03;;;18.38;;
35150;SDS011;55720;51.972;4.624;2022-08-19T02:48:22;35.17;;;17.77;;
35150;SDS011;55720;51.972;4.624;2022-08-19T02:50:50;42.88;;;19.02;;
35150;SDS011;55720;51.972;4.624;2022-08-19T02:53:22;44.90;;;18.67;;
35150;SDS011;55720;51.972;4.624;2022-08-19T02:55:49;39.15;;;19.88;;
35150;SDS011;55720;51.972;4.624;2022-08-19T02:58:16;50.70;;;21.15;;
35150;SDS011;55720;51.972;4.624;2022-08-19T03:00:46;45.88;;;21.42;;
35150;SDS011;55720;51.972;4.624;2022-08-19T03:03:14;60.47;;;25.13;;
35150;SDS011;55720;51.972;4.624;2022-08-19T03:05:40;70.10;;;26.00;;
35150;SDS011;55720;51.972;4.624;2022-08-19T03:08:06;75.05;;;27.20;;
35150;SDS011;55720;51.972;4.624;2022-08-19T03:10:33;77.43;;;28.65;;
35150;SDS011;55720;51.972;4.624;2022-08-19T03:13:05;77.43;;;28.13;;
35150;SDS011;55720;51.972;4.624;2022-08-19T03:15:30;87.00;;;30.85;;
35150;SDS011;55720;51.972;4.624;2022-08-19T03:17:55;95.78;;;31.88;;
35150;SDS011;55720;51.972;4.624;2022-08-19T03:20:21;98.43;;;32.40;;
35150;SDS011;55720;51.972;4.624;2022-08-19T03:22:46;92.22;;;32.58;;
35150;SDS011;55720;51.972;4.624;2022-08-19T03:25:11;95.90;;;33.53;;
35150;SDS011;55720;51.972;4.624;2022-08-19T03:27:37;102.93;;;31.65;;
35150;SDS011;55720;51.972;4.624;2022-08-19T03:30:02;90.65;;;32.10;;
35150;SDS011;55720;51.972;4.624;2022-08-19T03:32:29;89.80;;;31.08;;
35150;SDS011;55720;51.972;4.624;2022-08-19T03:34:54;98.22;;;32.65;;
35150;SDS011;55720;51.972;4.624;2022-08-19T03:37:19;93.18;;;32.60;;
35150;SDS011;55720;51.972;4.624;2022-08-19T03:39:45;95.50;;;32.22;;
35150;SDS011;55720;51.972;4.624;2022-08-19T03:42:11;92.65;;;31.67;;
35150;SDS011;55720;51.972;4.624;2022-08-19T03:44:37;91.47;;;31.58;;
35150;SDS011;55720;51.972;4.624;2022-08-19T03:47:02;96.53;;;32.17;;
35150;SDS011;55720;51.972;4.624;2022-08-19T03:49:29;104.97;;;34.05;;
35150;SDS011;55720;51.972;4.624;2022-08-19T03:51:56;110.78;;;34.22;;
35150;SDS011;55720;51.972;4.624;2022-08-19T03:54:23;94.10;;;32.28;;
35150;SDS011;55720;51.972;4.624;2022-08-19T03:56:50;109.32;;;32.70;;
35150;SDS011;55720;51.972;4.624;2022-08-19T03:59:20;106.50;;;35.72;;
35150;SDS011;55720;51.972;4.624;2022-08-19T04:01:50;111.00;;;36.00;;
35150;SDS011;55720;51.972;4.624;2022-08-19T04:04:17;136.27;;;41.10;;
35150;SDS011;55720;51.972;4.624;2022-08-19T04:06:42;148.05;;;42.17;;
35150;SDS011;55720;51.972;4.624;2022-08-19T04:09:09;154.38;;;43.05;;
35150;SDS011;55720;51.972;4.624;2022-08-19T04:11:40;172.43;;;46.95;;
35150;SDS011;55720;51.972;4.624;2022-08-19T04:14:08;193.38;;;49.08;;
35150;SDS011;55720;51.972;4.624;2022-08-19T04:16:35;186.85;;;48.13;;
35150;SDS011;55720;51.972;4.624;2022-08-19T04:19:02;211.45;;;52.42;;
35150;SDS011;55720;51.972;4.624;2022-08-19T04:21:29;187.57;;;50.97;;
35150;SDS011;55720;51.972;4.624;2022-08-19T04:23:55;209.80;;;53.08;;
35150;SDS011;55720;51.972;4.624;2022-08-19T04:26:22;200.32;;;51.60;;
35150;SDS011;55720;51.972;4.624;2022-08-19T04:28:50;205.57;;;53.42;;
35150;SDS011;55720;51.972;4.624;2022-08-19T04:31:26;204.07;;;53.20;;
35150;SDS011;55720;51.972;4.624;2022-08-19T04:33:58;206.13;;;52.88;;
35150;SDS011;55720;51.972;4.624;2022-08-19T04:36:26;219.05;;;53.53;;
35150;SDS011;55720;51.972;4.624;2022-08-19T04:38:54;201.52;;;52.75;;
35150;SDS011;55720;51.972;4.624;2022-08-19T04:41:21;204.73;;;51.58;;
35150;SDS011;55720;51.972;4.624;2022-08-19T04:44:05;216.10;;;52.97;;
35150;SDS011;55720;51.972;4.624;2022-08-19T04:46:31;196.85;;;53.03;;
35150;SDS011;55720;51.972;4.624;2022-08-19T04:49:01;187.73;;;51.67;;
35150;SDS011;55720;51.972;4.624;2022-08-19T04:51:29;178.80;;;49.58;;
35150;SDS011;55720;51.972;4.624;2022-08-19T04:53:56;187.45;;;50.05;;
35150;SDS011;55720;51.972;4.624;2022-08-19T04:56:21;168.48;;;48.10;;
35150;SDS011;55720;51.972;4.624;2022-08-19T04:58:47;168.73;;;47.28;;
35150;SDS011;55720;51.972;4.624;2022-08-19T05:01:19;147.25;;;45.67;;
35150;SDS011;55720;51.972;4.624;2022-08-19T05:03:46;155.07;;;46.28;;
35150;SDS011;55720;51.972;4.624;2022-08-19T05:06:12;141.65;;;44.65;;
35150;SDS011;55720;51.972;4.624;2022-08-19T05:08:40;146.60;;;45.55;;
35150;SDS011;55720;51.972;4.624;2022-08-19T05:11:12;144.48;;;44.65;;
35150;SDS011;55720;51.972;4.624;2022-08-19T05:13:45;136.50;;;43.20;;
35150;SDS011;55720;51.972;4.624;2022-08-19T05:16:11;146.13;;;44.00;;
35150;SDS011;55720;51.972;4.624;2022-08-19T05:18:38;132.82;;;42.97;;
35150;SDS011;55720;51.972;4.624;2022-08-19T05:21:23;131.52;;;44.08;;
35150;SDS011;55720;51.972;4.624;2022-08-19T05:24:08;119.20;;;40.60;;
35150;SDS011;55720;51.972;4.624;2022-08-19T05:26:34;111.95;;;39.80;;
35150;SDS011;55720;51.972;4.624;2022-08-19T05:29:04;113.13;;;40.53;;
35150;SDS011;55720;51.972;4.624;2022-08-19T05:31:31;110.75;;;40.03;;
35150;SDS011;55720;51.972;4.624;2022-08-19T05:33:56;107.57;;;38.63;;
35150;SDS011;55720;51.972;4.624;2022-08-19T05:36:24;101.68;;;37.42;;
35150;SDS011;55720;51.972;4.624;2022-08-19T05:38:53;98.47;;;36.65;;
35150;SDS011;55720;51.972;4.624;2022-08-19T05:41:19;86.25;;;36.10;;
35150;SDS011;55720;51.972;4.624;2022-08-19T05:43:46;98.18;;;38.08;;
35150;SDS011;55720;51.972;4.624;2022-08-19T05:46:18;97.93;;;36.83;;
35150;SDS011;55720;51.972;4.624;2022-08-19T05:48:44;87.13;;;36.10;;
35150;SDS011;55720;51.972;4.624;2022-08-19T05:51:11;87.88;;;35.70;;
35150;SDS011;55720;51.972;4.624;2022-08-19T05:53:37;83.35;;;34.60;;
35150;SDS011;55720;51.972;4.624;2022-08-19T05:56:03;90.05;;;34.65;;
35150;SDS011;55720;51.972;4.624;2022-08-19T05:58:30;87.25;;;35.10;;
35150;SDS011;55720;51.972;4.624;2022-08-19T06:00:57;72.57;;;33.63;;
35150;SDS011;55720;51.972;4.624;2022-08-19T06:03:22;76.35;;;33.30;;
35150;SDS011;55720;51.972;4.624;2022-08-19T06:05:48;83.47;;;31.85;;
35150;SDS011;55720;51.972;4.624;2022-08-19T06:08:13;70.55;;;30.83;;
35150;SDS011;55720;51.972;4.624;2022-08-19T06:10:39;77.82;;;31.52;;
35150;SDS011;55720;51.972;4.624;2022-08-19T06:13:04;67.63;;;29.90;;
35150;SDS011;55720;51.972;4.624;2022-08-19T06:15:30;65.07;;;31.83;;
35150;SDS011;55720;51.972;4.624;2022-08-19T06:17:56;67.80;;;29.45;;
35150;SDS011;55720;51.972;4.624;2022-08-19T06:20:21;61.90;;;30.33;;
35150;SDS011;55720;51.972;4.624;2022-08-19T06:22:49;59.97;;;29.27;;
35150;SDS011;55720;51.972;4.624;2022-08-19T06:25:16;64.82;;;30.40;;
35150;SDS011;55720;51.972;4.624;2022-08-19T06:27:42;60.75;;;29.77;;
35150;SDS011;55720;51.972;4.624;2022-08-19T06:30:08;61.28;;;30.88;;
35150;SDS011;55720;51.972;4.624;2022-08-19T06:32:35;54.35;;;28.55;;
35150;SDS011;55720;51.972;4.624;2022-08-19T06:35:00;62.08;;;29.45;;
35150;SDS011;55720;51.972;4.624;2022-08-19T06:37:25;55.65;;;27.50;;
35150;SDS011;55720;51.972;4.624;2022-08-19T06:39:51;52.67;;;27.83;;
35150;SDS011;55720;51.972;4.624;2022-08-19T06:42:16;51.88;;;26.85;;
35150;SDS011;55720;51.972;4.624;2022-08-19T06:44:44;50.88;;;26.98;;
35150;SDS011;55720;51.972;4.624;2022-08-19T06:47:13;46.65;;;24.27;;
35150;SDS011;55720;51.972;4.624;2022-08-19T06:49:40;42.15;;;23.48;;
35150;SDS011;55720;51.972;4.624;2022-08-19T06:52:06;42.25;;;22.92;;
35150;SDS011;55720;51.972;4.624;2022-08-19T06:54:32;41.10;;;22.15;;
35150;SDS011;55720;51.972;4.624;2022-08-19T06:56:58;36.58;;;19.67;;
35150;SDS011;55720;51.972;4.624;2022-08-19T06:59:28;32.50;;;18.65;;
35150;SDS011;55720;51.972;4.624;2022-08-19T07:01:57;23.63;;;12.60;;
35150;SDS011;55720;51.972;4.624;2022-08-19T07:04:28;33.03;;;17.88;;
35150;SDS011;55720;51.972;4.624;2022-08-19T07:07:03;32.15;;;18.77;;
35150;SDS011;55720;51.972;4.624;2022-08-19T07:09:34;29.25;;;17.90;;
35150;SDS011;55720;51.972;4.624;2022-08-19T07:12:06;30.55;;;17.95;;
35150;SDS011;55720;51.972;4.624;2022-08-19T07:14:33;30.90;;;18.08;;
35150;SDS011;55720;51.972;4.624;2022-08-19T07:17:02;33.33;;;19.15;;
35150;SDS011;55720;51.972;4.624;2022-08-19T07:19:30;31.88;;;18.50;;
35150;SDS011;55720;51.972;4.624;2022-08-19T07:21:56;35.08;;;19.52;;
35150;SDS011;55720;51.972;4.624;2022-08-19T07:24:24;39.63;;;18.83;;
35150;SDS011;55720;51.972;4.624;2022-08-19T07:26:51;37.75;;;18.70;;
35150;SDS011;55720;51.972;4.624;2022-08-19T07:29:19;27.63;;;17.38;;
35150;SDS011;55720;51.972;4.624;2022-08-19T07:31:48;32.35;;;18.30;;
35150;SDS011;55720;51.972;4.624;2022-08-19T07:34:14;32.08;;;17.33;;
35150;SDS011;55720;51.972;4.624;2022-08-19T07:36:41;28.10;;;17.30;;
35150;SDS011;55720;51.972;4.624;2022-08-19T07:39:08;34.25;;;18.17;;
35150;SDS011;55720;51.972;4.624;2022-08-19T07:41:39;30.95;;;17.50;;
35150;SDS011;55720;51.972;4.624;2022-08-19T07:44:05;32.83;;;19.00;;
35150;SDS011;55720;51.972;4.624;2022-08-19T07:46:34;32.22;;;18.52;;
35150;SDS011;55720;51.972;4.624;2022-08-19T07:49:02;32.78;;;19.08;;
35150;SDS011;55720;51.972;4.624;2022-08-19T07:51:29;33.55;;;19.10;;
35150;SDS011;55720;51.972;4.624;2022-08-19T07:53:54;39.85;;;20.20;;
35150;SDS011;55720;51.972;4.624;2022-08-19T07:56:20;35.22;;;18.92;;
35150;SDS011;55720;51.972;4.624;2022-08-19T07:58:46;41.63;;;19.73;;
35150;SDS011;55720;51.972;4.624;2022-08-19T08:01:15;37.00;;;19.98;;
35150;SDS011;55720;51.972;4.624;2022-08-19T08:06:28;36.78;;;20.85;;
35150;SDS011;55720;51.972;4.624;2022-08-19T08:09:12;37.45;;;20.77;;
35150;SDS011;55720;51.972;4.624;2022-08-19T08:11:50;40.10;;;20.38;;
35150;SDS011;55720;51.972;4.624;2022-08-19T08:14:28;42.60;;;21.23;;
35150;SDS011;55720;51.972;4.624;2022-08-19T08:16:56;41.33;;;20.30;;
35150;SDS011;55720;51.972;4.624;2022-08-19T08:19:23;40.42;;;20.90;;
35150;SDS011;55720;51.972;4.624;2022-08-19T08:21:50;41.67;;;20.92;;
35150;SDS011;55720;51.972;4.624;2022-08-19T08:24:16;40.08;;;20.90;;
35150;SDS011;55720;51.972;4.624;2022-08-19T08:26:43;36.15;;;19.42;;
35150;SDS011;55720;51.972;4.624;2022-08-19T08:29:09;36.72;;;20.52;;
35150;SDS011;55720;51.972;4.624;2022-08-19T08:31:36;35.97;;;20.13;;
35150;SDS011;55720;51.972;4.624;2022-08-19T08:34:01;40.40;;;19.23;;
35150;SDS011;55720;51.972;4.624;2022-08-19T08:36:27;28.88;;;17.25;;
35150;SDS011;55720;51.972;4.624;2022-08-19T08:38:53;33.78;;;17.85;;
35150;SDS011;55720;51.972;4.624;2022-08-19T08:43:52;26.98;;;15.68;;
35150;SDS011;55720;51.972;4.624;2022-08-19T08:46:21;23.98;;;15.55;;
35150;SDS011;55720;51.972;4.624;2022-08-19T08:48:53;28.92;;;15.02;;
35150;SDS011;55720;51.972;4.624;2022-08-19T08:51:48;24.48;;;14.90;;
35150;SDS011;55720;51.972;4.624;2022-08-19T08:54:19;22.35;;;14.55;;
35150;SDS011;55720;51.972;4.624;2022-08-19T08:56:46;23.80;;;14.35;;
35150;SDS011;55720;51.972;4.624;2022-08-19T09:01:48;22.83;;;12.68;;
35150;SDS011;55720;51.972;4.624;2022-08-19T09:04:13;25.65;;;12.85;;
35150;SDS011;55720;51.972;4.624;2022-08-19T09:06:46;18.75;;;11.98;;
35150;SDS011;55720;51.972;4.624;2022-08-19T09:09:55;20.90;;;12.60;;
35150;SDS011;55720;51.972;4.624;2022-08-19T09:15:07;20.73;;;10.88;;
35150;SDS011;55720;51.972;4.624;2022-08-19T09:17:36;18.87;;;10.97;;
35150;SDS011;55720;51.972;4.624;2022-08-19T09:20:14;15.32;;;11.10;;
35150;SDS011;55720;51.972;4.624;2022-08-19T09:22:40;18.33;;;10.35;;
35150;SDS011;55720;51.972;4.624;2022-08-19T09:25:10;17.52;;;11.60;;
35150;SDS011;55720;51.972;4.624;2022-08-19T09:27:39;17.98;;;9.77;;
35150;SDS011;55720;51.972;4.624;2022-08-19T09:30:06;16.42;;;10.02;;
35150;SDS011;55720;51.972;4.624;2022-08-19T09:32:32;18.27;;;10.38;;
35150;SDS011;55720;51.972;4.624;2022-08-19T09:34:59;17.40;;;10.95;;
35150;SDS011;55720;51.972;4.624;2022-08-19T09:37:25;14.45;;;9.50;;
35150;SDS011;55720;51.972;4.624;2022-08-19T09:39:51;16.23;;;9.10;;
35150;SDS011;55720;51.972;4.624;2022-08-19T09:42:17;15.68;;;8.23;;
35150;SDS011;55720;51.972;4.624;2022-08-19T09:44:42;12.77;;;8.30;;
35150;SDS011;55720;51.972;4.624;2022-08-19T09:47:09;17.13;;;9.00;;
35150;SDS011;55720;51.972;4.624;2022-08-19T09:49:36;13.95;;;9.18;;
35150;SDS011;55720;51.972;4.624;2022-08-19T09:52:04;17.52;;;9.88;;
35150;SDS011;55720;51.972;4.624;2022-08-19T09:54:29;13.70;;;9.88;;
35150;SDS011;55720;51.972;4.624;2022-08-19T09:56:55;15.13;;;9.32;;
35150;SDS011;55720;51.972;4.624;2022-08-19T09:59:23;12.55;;;10.55;;
35150;SDS011;55720;51.972;4.624;2022-08-19T10:01:48;15.75;;;10.45;;
35150;SDS011;55720;51.972;4.624;2022-08-19T10:04:14;21.90;;;10.45;;
35150;SDS011;55720;51.972;4.624;2022-08-19T10:06:40;13.73;;;10.13;;
35150;SDS011;55720;51.972;4.624;2022-08-19T10:09:07;14.27;;;8.73;;
35150;SDS011;55720;51.972;4.624;2022-08-19T10:11:34;18.08;;;9.90;;
35150;SDS011;55720;51.972;4.624;2022-08-19T10:14:01;15.15;;;8.32;;
35150;SDS011;55720;51.972;4.624;2022-08-19T10:16:27;13.13;;;8.18;;
35150;SDS011;55720;51.972;4.624;2022-08-19T10:18:53;18.60;;;8.70;;
35150;SDS011;55720;51.972;4.624;2022-08-19T10:21:24;8.30;;;7.50;;
35150;SDS011;55720;51.972;4.624;2022-08-19T10:23:52;7.75;;;5.75;;
35150;SDS011;55720;51.972;4.624;2022-08-19T10:26:28;10.73;;;6.28;;
35150;SDS011;55720;51.972;4.624;2022-08-19T10:28:56;11.38;;;5.75;;
35150;SDS011;55720;51.972;4.624;2022-08-19T10:31:32;12.15;;;4.85;;
35150;SDS011;55720;51.972;4.624;2022-08-19T10:33:58;11.65;;;5.85;;
35150;SDS011;55720;51.972;4.624;2022-08-19T10:36:34;8.18;;;4.70;;
35150;SDS011;55720;51.972;4.624;2022-08-19T10:39:04;11.13;;;4.65;;
35150;SDS011;55720;51.972;4.624;2022-08-19T10:41:33;8.73;;;4.60;;
35150;SDS011;55720;51.972;4.624;2022-08-19T10:44:02;6.90;;;4.28;;
35150;SDS011;55720;51.972;4.624;2022-08-19T10:46:30;11.55;;;4.30;;
35150;SDS011;55720;51.972;4.624;2022-08-19T10:48:58;7.15;;;4.15;;
35150;SDS011;55720;51.972;4.624;2022-08-19T10:51:25;8.52;;;3.70;;
35150;SDS011;55720;51.972;4.624;2022-08-19T10:54:09;5.15;;;3.58;;
35150;SDS011;55720;51.972;4.624;2022-08-19T10:56:35;8.45;;;3.50;;
35150;SDS011;55720;51.972;4.624;2022-08-19T10:59:17;3.92;;;3.00;;
35150;SDS011;55720;51.972;4.624;2022-08-19T11:01:45;7.30;;;3.22;;
35150;SDS011;55720;51.972;4.624;2022-08-19T11:04:11;5.82;;;2.80;;
35150;SDS011;55720;51.972;4.624;2022-08-19T11:06:41;6.50;;;3.20;;
35150;SDS011;55720;51.972;4.624;2022-08-19T11:09:08;4.22;;;2.75;;
35150;SDS011;55720;51.972;4.624;2022-08-19T11:11:34;5.00;;;2.92;;
35150;SDS011;55720;51.972;4.624;2022-08-19T11:14:05;3.40;;;2.83;;
35150;SDS011;55720;51.972;4.624;2022-08-19T11:16:31;8.98;;;3.10;;
35150;SDS011;55720;51.972;4.624;2022-08-19T11:18:57;6.75;;;2.58;;
35150;SDS011;55720;51.972;4.624;2022-08-19T11:21:28;3.10;;;2.80;;
35150;SDS011;55720;51.972;4.624;2022-08-19T11:24:00;3.42;;;2.17;;
35150;SDS011;55720;51.972;4.624;2022-08-19T11:26:29;6.65;;;2.20;;
35150;SDS011;55720;51.972;4.624;2022-08-19T11:28:56;5.05;;;2.10;;
35150;SDS011;55720;51.972;4.624;2022-08-19T11:31:23;2.88;;;2.10;;
35150;SDS011;55720;51.972;4.624;2022-08-19T11:33:51;4.57;;;2.13;;
35150;SDS011;55720;51.972;4.624;2022-08-19T11:36:18;5.55;;;2.38;;
35150;SDS011;55720;51.972;4.624;2022-08-19T11:38:46;4.28;;;1.98;;
35150;SDS011;55720;51.972;4.624;2022-08-19T11:41:13;3.60;;;1.88;;
35150;SDS011;55720;51.972;4.624;2022-08-19T11:43:39;3.38;;;1.48;;
35150;SDS011;55720;51.972;4.624;2022-08-19T11:46:05;2.78;;;1.80;;
35150;SDS011;55720;51.972;4.624;2022-08-19T11:48:40;2.95;;;1.60;;
35150;SDS011;55720;51.972;4.624;2022-08-19T11:51:08;4.82;;;1.67;;
35150;SDS011;55720;51.972;4.624;2022-08-19T11:53:36;3.20;;;1.40;;
35150;SDS011;55720;51.972;4.624;2022-08-19T11:56:02;1.65;;;1.15;;
35150;SDS011;55720;51.972;4.624;2022-08-19T11:58:29;4.22;;;1.20;;
35150;SDS011;55720;51.972;4.624;2022-08-19T12:00:55;1.92;;;1.25;;
35150;SDS011;55720;51.972;4.624;2022-08-19T12:03:20;3.67;;;1.20;;
35150;SDS011;55720;51.972;4.624;2022-08-19T12:05:46;1.70;;;1.00;;
35150;SDS011;55720;51.972;4.624;2022-08-19T12:08:12;1.10;;;1.00;;
35150;SDS011;55720;51.972;4.624;2022-08-19T12:10:39;7.63;;;1.35;;
35150;SDS011;55720;51.972;4.624;2022-08-19T12:13:06;2.25;;;1.10;;
35150;SDS011;55720;51.972;4.624;2022-08-19T12:15:35;5.75;;;1.10;;
35150;SDS011;55720;51.972;4.624;2022-08-19T12:18:02;2.22;;;1.00;;
35150;SDS011;55720;51.972;4.624;2022-08-19T12:20:29;2.92;;;1.02;;
35150;SDS011;55720;51.972;4.624;2022-08-19T12:22:54;2.80;;;1.10;;
35150;SDS011;55720;51.972;4.624;2022-08-19T12:25:19;3.67;;;1.30;;
35150;SDS011;55720;51.972;4.624;2022-08-19T12:27:45;3.95;;;1.17;;
35150;SDS011;55720;51.972;4.624;2022-08-19T12:30:12;1.25;;;1.10;;
35150;SDS011;55720;51.972;4.624;2022-08-19T12:32:38;1.20;;;1.10;;
35150;SDS011;55720;51.972;4.624;2022-08-19T12:35:04;1.10;;;1.00;;
35150;SDS011;55720;51.972;4.624;2022-08-19T12:37:31;2.20;;;1.10;;
35150;SDS011;55720;51.972;4.624;2022-08-19T12:39:57;2.15;;;1.20;;
35150;SDS011;55720;51.972;4.624;2022-08-19T12:42:22;1.42;;;1.13;;
35150;SDS011;55720;51.972;4.624;2022-08-19T12:44:48;1.80;;;1.30;;
35150;SDS011;55720;51.972;4.624;2022-08-19T12:47:13;7.18;;;1.60;;
35150;SDS011;55720;51.972;4.624;2022-08-19T12:49:39;3.28;;;1.75;;
35150;SDS011;55720;51.972;4.624;2022-08-19T12:52:06;4.03;;;1.73;;
35150;SDS011;55720;51.972;4.624;2022-08-19T12:54:34;6.85;;;2.17;;
35150;SDS011;55720;51.972;4.624;2022-08-19T12:57:00;2.95;;;1.70;;
35150;SDS011;55720;51.972;4.624;2022-08-19T12:59:26;2.08;;;1.42;;
35150;SDS011;55720;51.972;4.624;2022-08-19T13:01:52;2.55;;;1.30;;
35150;SDS011;55720;51.972;4.624;2022-08-19T13:04:17;2.80;;;1.50;;
35150;SDS011;55720;51.972;4.624;2022-08-19T13:06:43;1.20;;;0.80;;
35150;SDS011;55720;51.972;4.624;2022-08-19T13:09:08;3.47;;;1.13;;
35150;SDS011;55720;51.972;4.624;2022-08-19T13:11:34;1.90;;;1.10;;
35150;SDS011;55720;51.972;4.624;2022-08-19T13:14:00;1.98;;;1.60;;
35150;SDS011;55720;51.972;4.624;2022-08-19T13:16:28;4.57;;;3.13;;
35150;SDS011;55720;51.972;4.624;2022-08-19T13:18:54;4.47;;;3.58;;
35150;SDS011;55720;51.972;4.624;2022-08-19T13:21:22;3.75;;;3.40;;
35150;SDS011;55720;51.972;4.624;2022-08-19T13:23:50;6.30;;;4.22;;
35150;SDS011;55720;51.972;4.624;2022-08-19T13:26:16;6.22;;;3.95;;
35150;SDS011;55720;51.972;4.624;2022-08-19T13:28:42;5.68;;;3.70;;
35150;SDS011;55720;51.972;4.624;2022-08-19T13:31:29;5.38;;;3.70;;
35150;SDS011;55720;51.972;4.624;2022-08-19T13:34:15;5.10;;;4.28;;
35150;SDS011;55720;51.972;4.624;2022-08-19T13:36:42;6.43;;;3.60;;
35150;SDS011;55720;51.972;4.624;2022-08-19T13:39:08;6.50;;;5.03;;
35150;SDS011;55720;51.972;4.624;2022-08-19T13:41:34;4.50;;;4.10;;
35150;SDS011;55720;51.972;4.624;2022-08-19T13:44:01;4.80;;;4.40;;
35150;SDS011;55720;51.972;4.624;2022-08-19T13:46:27;5.95;;;5.20;;
35150;SDS011;55720;51.972;4.624;2022-08-19T13:48:54;5.40;;;4.82;;
35150;SDS011;55720;51.972;4.624;2022-08-19T13:51:19;6.18;;;5.32;;
35150;SDS011;55720;51.972;4.624;2022-08-19T13:53:45;5.82;;;5.00;;
35150;SDS011;55720;51.972;4.624;2022-08-19T13:56:12;5.82;;;4.53;;
35150;SDS011;55720;51.972;4.624;2022-08-19T13:58:39;7.65;;;5.97;;
35150;SDS011;55720;51.972;4.624;2022-08-19T14:01:05;6.97;;;6.05;;
35150;SDS011;55720;51.972;4.624;2022-08-19T14:03:32;9.40;;;6.50;;
35150;SDS011;55720;51.972;4.624;2022-08-19T14:05:58;9.20;;;6.85;;
35150;SDS011;55720;51.972;4.624;2022-08-19T14:08:24;6.07;;;5.35;;
35150;SDS011;55720;51.972;4.624;2022-08-19T14:10:52;9.60;;;5.30;;
35150;SDS011;55720;51.972;4.624;2022-08-19T14:13:19;6.93;;;5.38;;
35150;SDS011;55720;51.972;4.624;2022-08-19T14:15:46;7.25;;;5.30;;
35150;SDS011;55720;51.972;4.624;2022-08-19T14:18:12;6.63;;;5.93;;
35150;SDS011;55720;51.972;4.624;2022-08-19T14:20:38;6.47;;;5.80;;
35150;SDS011;55720;51.972;4.624;2022-08-19T14:23:04;6.20;;;5.60;;
35150;SDS011;55720;51.972;4.624;2022-08-19T14:25:32;7.63;;;5.70;;
35150;SDS011;55720;51.972;4.624;2022-08-19T14:27:58;7.20;;;6.45;;
35150;SDS011;55720;51.972;4.624;2022-08-19T14:30:26;9.35;;;6.10;;
35150;SDS011;55720;51.972;4.624;2022-08-19T14:32:54;7.38;;;6.40;;
35150;SDS011;55720;51.972;4.624;2022-08-19T14:35:21;10.68;;;6.00;;
35150;SDS011;55720;51.972;4.624;2022-08-19T14:37:47;7.57;;;5.43;;
35150;SDS011;55720;51.972;4.624;2022-08-19T14:40:18;6.72;;;5.22;;
35150;SDS011;55720;51.972;4.624;2022-08-19T14:42:51;7.68;;;4.88;;
35150;SDS011;55720;51.972;4.624;2022-08-19T14:45:17;6.38;;;4.85;;